Time;durP1;ratioP1;P1;durP2;ratioP2;P2;SDS_P1;SDS_P2;PMS_P1;PMS_P2;Temp;Humidity;BMP_temperature;BMP_pressure;BME280_temperature;BME280_humidity;BME280_pressure;Samples;Min_cycle;Max_cycle;Signal;HPM_P1;HPM_P2
2023/03/20 00:00:00;;;;;;;;;;;11.50;87.30;;;;;;5023642;28;20696;-82
2023/03/20 00:02:26;;;;;;;;;;;11.50;87.30;;;;;;5023659;28;19929;-84
2023/03/20 00:04:53;;;;;;;;;;;11.50;87.30;;;;;;5024157;28;19929;-83
2023/03/20 00:07:20;;;;;;;;;;;11.40;87.20;;;;;;5031473;28;19971;-85
2023/03/20 00:09:46;;;;;;;;;;;11.40;87.20;;;;;;5026519;28;19929;-83
2023/03/20 00:12:17;;;;;;;;;;;11.40;87.20;;;;;;5029579;28;19933;-84
2023/03/20 00:14:44;;;;;;;;;;;11.40;87.20;;;;;;5024356;28;19932;-81
2023/03/20 00:17:11;;;;;;;;;;;11.40;87.30;;;;;;5023421;28;19936;-84
2023/03/20 00:19:38;;;;;;;;;;;11.40;87.30;;;;;;5017950;28;19929;-84
2023/03/20 00:22:04;;;;;;;;;;;11.40;87.20;;;;;;5024020;28;19940;-84
2023/03/20 00:24:31;;;;;;;;;;;11.30;87.20;;;;;;5024194;28;19929;-83
2023/03/20 00:26:57;;;;;;;;;;;11.40;87.30;;;;;;5026663;28;19929;-82
2023/03/20 00:29:26;;;;;;;;;;;11.30;87.30;;;;;;5021906;28;19960;-84
2023/03/20 00:31:53;;;;;;;;;;;11.30;87.40;;;;;;5023592;28;20310;-84
2023/03/20 00:34:22;;;;;;;;;;;11.30;87.40;;;;;;5025247;28;19937;-83
2023/03/20 00:36:49;;;;;;;;;;;11.30;87.50;;;;;;5024164;28;21075;-83
2023/03/20 00:39:15;;;;;;;;;;;11.30;87.60;;;;;;5024552;28;19937;-83
2023/03/20 00:41:43;;;;;;;;;;;11.30;87.70;;;;;;5025689;28;20376;-84
2023/03/20 00:44:16;;;;;;;;;;;11.30;87.80;;;;;;5026463;28;19929;-84
2023/03/20 00:46:46;;;;;;;;;;;11.30;87.90;;;;;;5022252;28;19943;-82
2023/03/20 00:49:13;;;;;;;;;;;11.20;87.80;;;;;;5023116;28;20384;-83
2023/03/20 00:51:41;;;;;;;;;;;11.20;87.80;;;;;;5024905;28;19933;-84
2023/03/20 00:54:12;;;;;;;;;;;11.20;87.90;;;;;;5025431;28;19929;-83
2023/03/20 00:56:40;;;;;;;;;;;11.20;88.00;;;;;;5024770;28;20612;-83
2023/03/20 00:59:13;;;;;;;;;;;11.20;88.10;;;;;;5023201;28;19929;-82
2023/03/20 01:01:40;;;;;;;;;;;11.20;88.10;;;;;;5026184;28;20376;-83
2023/03/20 01:04:11;;;;;;;;;;;11.20;88.20;;;;;;5024564;28;19940;-84
2023/03/20 01:06:37;;;;;;;;;;;11.20;88.20;;;;;;5025395;28;19979;-82
2023/03/20 01:09:04;;;;;;;;;;;11.20;88.20;;;;;;5017873;28;19925;-83
2023/03/20 01:11:31;;;;;;;;;;;11.10;88.20;;;;;;5023081;28;19948;-83
2023/03/20 01:13:58;;;;;;;;;;;11.10;88.30;;;;;;5024769;28;19932;-83
2023/03/20 01:16:25;;;;;;;;;;;11.20;88.40;;;;;;5016744;28;19933;-85
2023/03/20 01:18:53;;;;;;;;;;;11.10;88.50;;;;;;5022309;28;19987;-84
2023/03/20 01:21:21;;;;;;;;;;;11.10;88.50;;;;;;5024606;28;19925;-82
2023/03/20 01:23:48;;;;;;;;;;;11.10;88.50;;;;;;5023800;28;19944;-83
2023/03/20 01:26:27;;;;;;;;;;;11.10;88.60;;;;;;5022224;28;20480;-85
2023/03/20 01:28:53;;;;;;;;;;;11.10;88.60;;;;;;5027042;28;20404;-83
2023/03/20 01:31:20;;;;;;;;;;;11.10;88.60;;;;;;5021984;28;19933;-84
2023/03/20 01:33:46;;;;;;;;;;;11.10;88.70;;;;;;5023565;28;19933;-84
2023/03/20 01:36:15;;;;;;;;;;;11.10;88.80;;;;;;5025111;28;19940;-84
2023/03/20 01:38:43;;;;;;;;;;;11.00;88.80;;;;;;5023722;28;19928;-84
2023/03/20 01:41:12;;;;;;;;;;;10.90;88.70;;;;;;5021136;28;19925;-83
2023/03/20 01:43:39;;;;;;;;;;;11.00;88.90;;;;;;5025437;28;19929;-84
2023/03/20 01:46:16;;;;;;;;;;;11.00;89.00;;;;;;5027560;28;19983;-82
2023/03/20 01:49:01;;;;;;;;;;;11.00;89.10;;;;;;5025055;28;20024;-82
2023/03/20 01:51:28;;;;;;;;;;;11.00;89.20;;;;;;5026741;28;19936;-84
2023/03/20 01:53:58;;;;;;;;;;;11.00;89.20;;;;;;5024870;28;19936;-83
2023/03/20 01:56:25;;;;;;;;;;;11.00;89.30;;;;;;5025032;28;20468;-83
2023/03/20 01:58:55;;;;;;;;;;;10.90;89.30;;;;;;5020783;28;19928;-82
2023/03/20 02:01:24;;;;;;;;;;;10.90;89.50;;;;;;5023706;28;19936;-84
2023/03/20 02:03:51;;;;;;;;;;;10.90;89.60;;;;;;5024630;28;19936;-84
2023/03/20 02:06:19;;;;;;;;;;;10.90;89.70;;;;;;5026260;28;20024;-85
2023/03/20 02:08:47;;;;;;;;;;;10.90;89.80;;;;;;5023981;28;19940;-83
2023/03/20 02:11:16;;;;;;;;;;;10.90;89.90;;;;;;5023597;28;19929;-83
2023/03/20 02:13:43;;;;;;;;;;;10.90;90.00;;;;;;5025534;28;20298;-83
2023/03/20 02:16:11;;;;;;;;;;;10.90;90.00;;;;;;5024273;28;20465;-83
2023/03/20 02:18:38;;;;;;;;;;;10.90;90.00;;;;;;5026241;28;19932;-83
2023/03/20 02:21:23;;;;;;;;;;;10.80;90.00;;;;;;5025322;28;19936;-84
2023/03/20 02:24:10;;;;;;;;;;;10.80;90.00;;;;;;5025027;28;19929;-82
2023/03/20 02:26:46;;;;;;;;;;;10.80;90.10;;;;;;5026618;28;20688;-83
2023/03/20 02:29:33;;;;;;;;;;;10.80;90.10;;;;;;5020629;28;19929;-83
2023/03/20 02:32:17;;;;;;;;;;;10.80;90.10;;;;;;5024502;28;19933;-83
2023/03/20 02:35:17;;;;;;;;;;;10.80;90.10;;;;;;5020931;28;20385;-82
2023/03/20 02:37:52;;;;;;;;;;;10.80;90.10;;;;;;4981364;28;19934;-83
2023/03/20 02:40:24;;;;;;;;;;;10.80;90.10;;;;;;4977499;28;19934;-81
2023/03/20 02:42:53;;;;;;;;;;;10.80;90.10;;;;;;5006260;28;19998;-82
2023/03/20 02:45:23;;;;;;;;;;;10.80;90.10;;;;;;5022857;28;19925;-84
2023/03/20 02:47:52;;;;;;;;;;;10.80;90.10;;;;;;5024747;28;19933;-81
2023/03/20 02:50:24;;;;;;;;;;;10.80;90.10;;;;;;5026053;28;19953;-82
2023/03/20 02:52:57;;;;;;;;;;;10.80;90.20;;;;;;5022605;28;20336;-84
2023/03/20 02:55:29;;;;;;;;;;;10.70;90.20;;;;;;5024272;28;19983;-81
2023/03/20 02:57:59;;;;;;;;;;;10.80;90.30;;;;;;5022672;28;19937;-82
2023/03/20 03:00:28;;;;;;;;;;;10.70;90.30;;;;;;5023727;28;19937;-82
2023/03/20 03:02:58;;;;;;;;;;;10.70;90.30;;;;;;5024014;28;20003;-81
2023/03/20 03:05:30;;;;;;;;;;;10.70;90.30;;;;;;5024562;28;19929;-81
2023/03/20 03:07:59;;;;;;;;;;;10.80;90.30;;;;;;5024846;28;20409;-83
2023/03/20 03:10:28;;;;;;;;;;;10.70;90.30;;;;;;5022199;28;20519;-81
2023/03/20 03:12:57;;;;;;;;;;;10.70;90.30;;;;;;5025457;28;19987;-81
2023/03/20 03:15:27;;;;;;;;;;;10.80;90.30;;;;;;5027993;28;20409;-83
2023/03/20 03:17:54;;;;;;;;;;;10.80;90.30;;;;;;5028306;28;19933;-82
2023/03/20 03:20:23;;;;;;;;;;;10.70;90.30;;;;;;5026802;28;19940;-81
2023/03/20 03:22:50;;;;;;;;;;;10.80;90.70;;;;;;5024143;28;19928;-80
2023/03/20 03:25:18;;;;;;;;;;;10.70;90.40;;;;;;5028738;28;19955;-83
2023/03/20 03:27:46;;;;;;;;;;;10.70;90.40;;;;;;5028114;28;19929;-82
2023/03/20 03:30:16;;;;;;;;;;;10.60;90.40;;;;;;5027179;28;19929;-83
2023/03/20 03:32:47;;;;;;;;;;;10.70;90.50;;;;;;5028111;28;19929;-83
2023/03/20 03:35:16;;;;;;;;;;;10.70;90.50;;;;;;5028039;28;19940;-82
2023/03/20 03:37:44;;;;;;;;;;;10.70;90.60;;;;;;5035680;28;20514;-83
2023/03/20 03:40:17;;;;;;;;;;;10.60;90.60;;;;;;5027651;28;19929;-82
2023/03/20 03:42:48;;;;;;;;;;;10.60;90.60;;;;;;5028153;28;20594;-83
2023/03/20 03:45:17;;;;;;;;;;;10.70;90.60;;;;;;5028732;28;19933;-83
2023/03/20 03:47:46;;;;;;;;;;;10.60;90.60;;;;;;5029822;28;20006;-82
2023/03/20 03:50:16;;;;;;;;;;;10.60;90.70;;;;;;5029941;28;19929;-84
2023/03/20 03:52:43;;;;;;;;;;;10.60;90.70;;;;;;5029419;28;20305;-81
2023/03/20 03:55:11;;;;;;;;;;;10.60;90.70;;;;;;5025994;28;19929;-83
2023/03/20 03:57:40;;;;;;;;;;;10.60;90.70;;;;;;5027291;28;19941;-80
2023/03/20 04:00:11;;;;;;;;;;;10.60;90.80;;;;;;5026761;28;19940;-82
2023/03/20 04:02:37;;;;;;;;;;;10.60;90.80;;;;;;5020051;28;19933;-83
2023/03/20 04:05:05;;;;;;;;;;;10.60;90.80;;;;;;5027443;28;19952;-83
2023/03/20 04:07:32;;;;;;;;;;;10.60;90.80;;;;;;5025059;28;20022;-83
2023/03/20 04:09:58;;;;;;;;;;;10.50;90.70;;;;;;5024029;28;19929;-83
2023/03/20 04:12:32;;;;;;;;;;;10.60;90.80;;;;;;5025120;28;19956;-83
2023/03/20 04:14:58;;;;;;;;;;;10.60;90.80;;;;;;5028536;28;19936;-83
2023/03/20 04:17:26;;;;;;;;;;;10.50;90.70;;;;;;5027138;28;20313;-82
2023/03/20 04:19:53;;;;;;;;;;;10.50;90.80;;;;;;5025847;28;19929;-82
2023/03/20 04:22:19;;;;;;;;;;;10.60;90.80;;;;;;5028338;28;19929;-83
2023/03/20 04:24:46;;;;;;;;;;;10.50;90.80;;;;;;5025147;28;19999;-82
2023/03/20 04:27:13;;;;;;;;;;;10.60;90.90;;;;;;5027226;28;19976;-83
2023/03/20 04:29:39;;;;;;;;;;;10.50;90.90;;;;;;5029189;28;19937;-83
2023/03/20 04:32:06;;;;;;;;;;;10.50;90.90;;;;;;5024647;28;20028;-84
2023/03/20 04:34:34;;;;;;;;;;;10.50;90.90;;;;;;5031505;28;20544;-81
2023/03/20 04:37:00;;;;;;;;;;;10.50;90.90;;;;;;5028397;28;19933;-81
2023/03/20 04:39:27;;;;;;;;;;;10.40;90.90;;;;;;5029381;28;20434;-84
2023/03/20 04:41:54;;;;;;;;;;;10.50;90.90;;;;;;5026103;28;19936;-83
2023/03/20 04:44:20;;;;;;;;;;;10.40;90.90;;;;;;5022259;28;19933;-80
2023/03/20 04:46:47;;;;;;;;;;;10.40;90.90;;;;;;5025413;28;19932;-82
2023/03/20 04:49:13;;;;;;;;;;;10.40;90.90;;;;;;5025858;28;19928;-81
2023/03/20 04:51:41;;;;;;;;;;;10.40;91.00;;;;;;5027416;28;19967;-81
2023/03/20 04:54:08;;;;;;;;;;;10.40;91.10;;;;;;5027796;28;19933;-82
2023/03/20 04:56:34;;;;;;;;;;;10.40;91.10;;;;;;5027210;28;19934;-81
2023/03/20 04:59:01;;;;;;;;;;;10.40;91.20;;;;;;5027879;28;19936;-83
2023/03/20 05:01:27;;;;;;;;;;;10.40;91.30;;;;;;5026817;28;19975;-82
2023/03/20 05:03:59;;;;;;;;;;;10.40;91.30;;;;;;5028235;28;19929;-81
2023/03/20 05:06:25;;;;;;;;;;;10.40;91.30;;;;;;5027303;28;19952;-84
2023/03/20 05:08:53;;;;;;;;;;;10.40;91.30;;;;;;5027761;28;20372;-84
2023/03/20 05:11:20;;;;;;;;;;;10.30;91.30;;;;;;5025830;28;19944;-84
2023/03/20 05:13:46;;;;;;;;;;;10.30;91.30;;;;;;5023801;28;19929;-83
2023/03/20 05:16:13;;;;;;;;;;;10.40;91.40;;;;;;5027241;28;19995;-85
2023/03/20 05:18:40;;;;;;;;;;;10.30;91.40;;;;;;5028228;28;19933;-86
2023/03/20 05:21:07;;;;;;;;;;;10.20;91.40;;;;;;5027316;28;19936;-83
2023/03/20 05:23:34;;;;;;;;;;;10.30;91.50;;;;;;5028637;28;19932;-85
2023/03/20 05:26:02;;;;;;;;;;;10.30;91.50;;;;;;5026527;28;19935;-83
2023/03/20 05:28:28;;;;;;;;;;;10.30;91.50;;;;;;5024439;28;19960;-83
2023/03/20 05:30:55;;;;;;;;;;;10.30;91.50;;;;;;5025958;28;20252;-82
2023/03/20 05:33:21;;;;;;;;;;;10.30;91.50;;;;;;5020521;28;19929;-82
2023/03/20 05:35:48;;;;;;;;;;;10.30;91.50;;;;;;5019764;28;19936;-82
2023/03/20 05:38:14;;;;;;;;;;;10.30;91.40;;;;;;5025445;28;20337;-81
2023/03/20 05:40:41;;;;;;;;;;;10.30;91.50;;;;;;5022837;28;19929;-82
2023/03/20 05:43:09;;;;;;;;;;;10.20;91.60;;;;;;5025365;28;19979;-81
2023/03/20 05:45:36;;;;;;;;;;;10.20;91.60;;;;;;5023547;28;20014;-80
2023/03/20 05:48:02;;;;;;;;;;;10.20;91.60;;;;;;5023554;28;19936;-82
2023/03/20 05:50:29;;;;;;;;;;;10.20;91.60;;;;;;5017311;28;19940;-82
2023/03/20 05:52:55;;;;;;;;;;;10.20;91.60;;;;;;5023186;28;19937;-82
2023/03/20 05:55:22;;;;;;;;;;;10.20;92.70;;;;;;5023679;28;19929;-83
2023/03/20 05:57:48;;;;;;;;;;;10.10;92.90;;;;;;5020767;28;20577;-81
2023/03/20 06:00:17;;;;;;;;;;;10.10;92.80;;;;;;5019806;28;20115;-81
2023/03/20 06:02:43;;;;;;;;;;;10.10;92.70;;;;;;5019118;28;19933;-81
2023/03/20 06:05:10;;;;;;;;;;;10.10;92.60;;;;;;5024131;28;19991;-82
2023/03/20 06:07:37;;;;;;;;;;;10.10;92.50;;;;;;5019755;28;20686;-81
2023/03/20 06:10:03;;;;;;;;;;;10.10;92.50;;;;;;5022135;28;19929;-82
2023/03/20 06:12:30;;;;;;;;;;;10.10;92.40;;;;;;5023148;28;20073;-82
2023/03/20 06:14:56;;;;;;;;;;;10.10;92.40;;;;;;5022304;28;19936;-81
2023/03/20 06:17:24;;;;;;;;;;;10.10;92.40;;;;;;5020155;28;19932;-81
2023/03/20 06:19:51;;;;;;;;;;;10.10;92.40;;;;;;5020733;28;19975;-81
2023/03/20 06:22:17;;;;;;;;;;;10.10;92.40;;;;;;5020849;28;19964;-82
2023/03/20 06:24:45;;;;;;;;;;;10.10;92.60;;;;;;5018987;28;19956;-83
2023/03/20 06:27:11;;;;;;;;;;;10.10;92.30;;;;;;5023302;28;20024;-82
2023/03/20 06:29:38;;;;;;;;;;;10.10;92.40;;;;;;5022934;28;19933;-81
2023/03/20 06:32:06;;;;;;;;;;;10.10;92.30;;;;;;5017969;28;19933;-80
2023/03/20 06:34:34;;;;;;;;;;;10.10;92.30;;;;;;5020155;28;20447;-81
2023/03/20 06:37:01;;;;;;;;;;;10.20;92.40;;;;;;5018460;28;19953;-80
2023/03/20 06:39:28;;;;;;;;;;;10.10;92.40;;;;;;5018948;28;19933;-82
2023/03/20 06:41:55;;;;;;;;;;;10.20;92.40;;;;;;5021300;28;19999;-82
2023/03/20 06:44:22;;;;;;;;;;;10.20;92.30;;;;;;5027305;28;19940;-81
2023/03/20 06:46:48;;;;;;;;;;;10.20;92.30;;;;;;5017339;28;19933;-82
2023/03/20 06:49:15;;;;;;;;;;;10.10;92.20;;;;;;5025650;28;20360;-81
2023/03/20 06:51:44;;;;;;;;;;;10.20;92.20;;;;;;5023605;28;20344;-80
2023/03/20 06:54:10;;;;;;;;;;;10.20;92.20;;;;;;5020625;28;19940;-81
2023/03/20 06:56:37;;;;;;;;;;;10.20;92.20;;;;;;5016649;28;19929;-81
2023/03/20 06:59:03;;;;;;;;;;;10.20;92.10;;;;;;5019105;28;19986;-81
2023/03/20 07:01:30;;;;;;;;;;;10.10;92.10;;;;;;5023321;28;19933;-81
2023/03/20 07:03:56;;;;;;;;;;;10.10;92.00;;;;;;5023736;28;19983;-82
2023/03/20 07:06:23;;;;;;;;;;;10.10;92.00;;;;;;5020430;28;19956;-81
2023/03/20 07:08:51;;;;;;;;;;;10.10;92.00;;;;;;5025668;28;20109;-82
2023/03/20 07:11:18;;;;;;;;;;;10.20;92.10;;;;;;5022323;28;20020;-82
2023/03/20 07:13:45;;;;;;;;;;;10.20;92.10;;;;;;5014294;28;20001;-80
2023/03/20 07:16:11;;;;;;;;;;;10.20;92.10;;;;;;5020469;28;19941;-81
2023/03/20 07:18:38;;;;;;;;;;;10.10;92.10;;;;;;5024048;28;19991;-82
2023/03/20 07:21:06;;;;;;;;;;;10.20;92.20;;;;;;5022045;28;19929;-82
2023/03/20 07:23:33;;;;;;;;;;;10.20;92.20;;;;;;5021300;28;19929;-81
2023/03/20 07:26:02;;;;;;;;;;;10.20;92.20;;;;;;5021746;28;20044;-81
2023/03/20 07:28:28;;;;;;;;;;;10.10;92.30;;;;;;5022111;28;19928;-83
2023/03/20 07:30:55;;;;;;;;;;;10.20;92.20;;;;;;5022617;28;19929;-81
2023/03/20 07:33:22;;;;;;;;;;;10.20;92.20;;;;;;5022868;28;19929;-82
2023/03/20 07:35:51;;;;;;;;;;;10.20;92.20;;;;;;5023842;28;20180;-83
2023/03/20 07:38:18;;;;;;;;;;;10.20;92.20;;;;;;5023715;28;19929;-81
2023/03/20 07:40:44;;;;;;;;;;;10.20;92.20;;;;;;5022822;28;21130;-81
2023/03/20 07:43:12;;;;;;;;;;;10.20;92.20;;;;;;5023222;28;19940;-82
2023/03/20 07:45:39;;;;;;;;;;;10.20;92.20;;;;;;5020077;28;19940;-83
2023/03/20 07:48:06;;;;;;;;;;;10.20;92.30;;;;;;5020677;28;19992;-83
2023/03/20 07:50:33;;;;;;;;;;;10.20;92.30;;;;;;5027616;28;19936;-81
2023/03/20 07:52:59;;;;;;;;;;;10.20;92.30;;;;;;5023192;28;20389;-82
2023/03/20 07:55:26;;;;;;;;;;;10.20;92.30;;;;;;5023143;28;20647;-81
2023/03/20 07:57:52;;;;;;;;;;;10.20;92.30;;;;;;5019635;28;20296;-81
2023/03/20 08:00:20;;;;;;;;;;;10.20;92.40;;;;;;5013682;28;19956;-81
2023/03/20 08:02:48;;;;;;;;;;;10.20;92.50;;;;;;5022288;28;19925;-83
2023/03/20 08:05:15;;;;;;;;;;;10.30;92.50;;;;;;5024984;28;20018;-83
2023/03/20 08:07:41;;;;;;;;;;;10.20;92.60;;;;;;5017200;28;20600;-83
2023/03/20 08:10:08;;;;;;;;;;;10.30;92.60;;;;;;5019122;28;20447;-81
2023/03/20 08:12:36;;;;;;;;;;;10.30;92.60;;;;;;5024529;28;20024;-82
2023/03/20 08:15:02;;;;;;;;;;;10.30;92.60;;;;;;5027045;28;19929;-81
2023/03/20 08:17:30;;;;;;;;;;;10.30;92.60;;;;;;5023461;28;19936;-81
2023/03/20 08:19:57;;;;;;;;;;;10.30;92.60;;;;;;5020715;28;20725;-82
2023/03/20 08:22:23;;;;;;;;;;;10.30;92.50;;;;;;5016766;28;19936;-82
2023/03/20 08:24:50;;;;;;;;;;;10.40;92.50;;;;;;5018168;28;19936;-81
2023/03/20 08:27:17;;;;;;;;;;;10.40;92.40;;;;;;5023794;28;19929;-81
2023/03/20 08:29:43;;;;;;;;;;;10.40;92.40;;;;;;5023762;28;20028;-83
2023/03/20 08:32:10;;;;;;;;;;;10.40;92.40;;;;;;5023192;28;19956;-81
2023/03/20 08:34:38;;;;;;;;;;;10.40;92.30;;;;;;5015259;28;19959;-82
2023/03/20 08:37:06;;;;;;;;;;;10.30;92.30;;;;;;5013266;28;20460;-81
2023/03/20 08:39:34;;;;;;;;;;;10.50;92.40;;;;;;5021841;28;20528;-81
2023/03/20 08:42:01;;;;;;;;;;;10.50;92.30;;;;;;5019689;28;19933;-81
2023/03/20 08:44:27;;;;;;;;;;;10.50;92.30;;;;;;5020559;28;20411;-80
2023/03/20 08:46:55;;;;;;;;;;;10.50;92.30;;;;;;5023640;28;19933;-81
2023/03/20 08:49:21;;;;;;;;;;;10.50;92.20;;;;;;5023102;28;19940;-83
2023/03/20 08:51:49;;;;;;;;;;;10.50;92.20;;;;;;5020510;28;19940;-81
2023/03/20 08:54:17;;;;;;;;;;;10.60;92.10;;;;;;5022921;28;20448;-80
2023/03/20 08:56:43;;;;;;;;;;;10.60;92.10;;;;;;5016305;28;19933;-80
2023/03/20 08:59:10;;;;;;;;;;;10.60;92.00;;;;;;5020065;28;19937;-80
2023/03/20 09:01:37;;;;;;;;;;;10.60;92.00;;;;;;5022428;28;19929;-82
2023/03/20 09:04:03;;;;;;;;;;;10.60;92.00;;;;;;5021962;28;19929;-80
2023/03/20 09:06:31;;;;;;;;;;;10.70;92.00;;;;;;5026028;28;19932;-81
2023/03/20 09:08:59;;;;;;;;;;;10.70;92.00;;;;;;5020817;28;19968;-80
2023/03/20 09:11:26;;;;;;;;;;;10.70;91.90;;;;;;5024997;28;19940;-79
2023/03/20 09:13:52;;;;;;;;;;;10.70;91.90;;;;;;5022701;28;19929;-79
2023/03/20 09:16:19;;;;;;;;;;;10.70;91.80;;;;;;5019828;28;19929;-80
2023/03/20 09:18:45;;;;;;;;;;;10.70;91.80;;;;;;5021408;28;20603;-80
2023/03/20 09:21:12;;;;;;;;;;;10.70;91.70;;;;;;5020337;28;19941;-82
2023/03/20 09:23:38;;;;;;;;;;;10.70;91.70;;;;;;5020643;28;19933;-82
2023/03/20 09:26:07;;;;;;;;;;;10.80;91.70;;;;;;5023302;28;19933;-81
2023/03/20 09:28:33;;;;;;;;;;;10.80;91.60;;;;;;5025025;28;19979;-81
2023/03/20 09:31:00;;;;;;;;;;;10.80;91.60;;;;;;5022806;28;19932;-81
2023/03/20 09:33:27;;;;;;;;;;;10.80;91.50;;;;;;5025671;28;19933;-81
2023/03/20 09:35:53;;;;;;;;;;;10.80;91.50;;;;;;5027921;28;19929;-81
2023/03/20 09:38:20;;;;;;;;;;;10.90;91.40;;;;;;5024622;28;19929;-80
2023/03/20 09:40:52;;;;;;;;;;;10.80;91.40;;;;;;5022436;28;20382;-81
2023/03/20 09:43:26;;;;;;;;;;;10.90;91.30;;;;;;5020822;28;19956;-80
2023/03/20 09:45:57;;;;;;;;;;;10.90;91.30;;;;;;5020707;28;19933;-80
2023/03/20 09:48:29;;;;;;;;;;;10.90;91.20;;;;;;5020672;28;20727;-81
2023/03/20 09:50:59;;;;;;;;;;;10.90;91.20;;;;;;5022934;28;19929;-81
2023/03/20 09:53:29;;;;;;;;;;;10.90;91.20;;;;;;5022452;28;20998;-81
2023/03/20 09:55:56;;;;;;;;;;;11.00;91.10;;;;;;5023001;28;19984;-81
2023/03/20 09:58:26;;;;;;;;;;;10.90;91.10;;;;;;5017523;28;19934;-80
2023/03/20 10:00:55;;;;;;;;;;;10.90;91.00;;;;;;5020999;28;19996;-82
2023/03/20 10:03:25;;;;;;;;;;;11.00;91.00;;;;;;5017177;28;19933;-82
2023/03/20 10:05:55;;;;;;;;;;;10.90;90.90;;;;;;5022382;28;20020;-81
2023/03/20 10:08:25;;;;;;;;;;;11.00;90.80;;;;;;5019770;28;20321;-80
2023/03/20 10:10:55;;;;;;;;;;;11.10;90.70;;;;;;5020245;28;19940;-85
2023/03/20 10:13:40;;;;;;;;;;;11.10;90.70;;;;;;5025126;28;20286;-86
2023/03/20 10:16:12;;;;;;;;;;;11.10;90.60;;;;;;5005984;28;20637;-85
2023/03/20 10:18:43;;;;;;;;;;;11.20;90.60;;;;;;5029599;28;19933;-84
2023/03/20 10:21:12;;;;;;;;;;;11.20;90.50;;;;;;5019835;28;19933;-85
2023/03/20 10:23:41;;;;;;;;;;;11.30;90.30;;;;;;5021430;28;19933;-87
2023/03/20 10:26:10;;;;;;;;;;;11.30;90.20;;;;;;5018767;28;19991;-84
2023/03/20 10:28:41;;;;;;;;;;;11.40;90.10;;;;;;5025036;28;20044;-85
2023/03/20 10:31:16;;;;;;;;;;;11.40;90.10;;;;;;5024336;28;19930;-86
2023/03/20 10:33:49;;;;;;;;;;;11.40;90.00;;;;;;5022333;28;19937;-85
2023/03/20 10:36:24;;;;;;;;;;;11.50;89.60;;;;;;5026314;28;19936;-84
2023/03/20 10:38:54;;;;;;;;;;;11.50;89.40;;;;;;5023827;28;19952;-87
2023/03/20 10:41:22;;;;;;;;;;;11.60;89.30;;;;;;5022311;28;20526;-86
2023/03/20 10:43:50;;;;;;;;;;;11.60;89.00;;;;;;5025881;28;20412;-86
2023/03/20 10:46:21;;;;;;;;;;;11.60;88.80;;;;;;5024089;28;19933;-85
2023/03/20 10:48:49;;;;;;;;;;;11.70;88.70;;;;;;5030914;28;19979;-87
2023/03/20 10:51:17;;;;;;;;;;;11.80;88.30;;;;;;5022777;28;20527;-85
2023/03/20 10:53:47;;;;;;;;;;;11.80;88.00;;;;;;5022332;28;19988;-84
2023/03/20 10:56:15;;;;;;;;;;;11.90;87.60;;;;;;5025466;28;19936;-85
2023/03/20 10:58:44;;;;;;;;;;;11.90;87.30;;;;;;5024965;28;19929;-83
2023/03/20 11:01:10;;;;;;;;;;;12.00;87.10;;;;;;5026328;28;19935;-80
2023/03/20 11:03:40;;;;;;;;;;;12.10;86.80;;;;;;5043927;23;19989;-78
2023/03/20 11:06:09;;;;;;;;;;;12.10;86.40;;;;;;4983934;28;20031;-78
2023/03/20 11:08:36;;;;;;;;;;;12.20;86.10;;;;;;4989380;28;20411;-77
2023/03/20 11:11:04;;;;;;;;;;;12.20;85.90;;;;;;5001142;28;20024;-77
2023/03/20 11:13:31;;;;;;;;;;;12.30;85.60;;;;;;5001586;28;19937;-78
2023/03/20 11:16:08;;;;;;;;;;;12.40;85.70;;;;;;5000326;28;19937;-78
2023/03/20 11:18:34;;;;;;;;;;;12.30;85.50;;;;;;4997212;28;19949;-77
2023/03/20 11:21:03;;;;;;;;;;;12.40;85.40;;;;;;4991638;28;19948;-77
2023/03/20 11:23:32;;;;;;;;;;;12.40;85.30;;;;;;4984910;28;20520;-78
2023/03/20 11:26:00;;;;;;;;;;;12.40;85.20;;;;;;4995689;28;19929;-79
2023/03/20 11:28:30;;;;;;;;;;;12.30;85.00;;;;;;5000603;28;19934;-79
2023/03/20 11:30:57;;;;;;;;;;;12.40;85.00;;;;;;5006935;28;19929;-80
2023/03/20 11:33:26;;;;;;;;;;;12.40;85.20;;;;;;5006626;28;19952;-78
2023/03/20 11:35:53;;;;;;;;;;;12.30;84.50;;;;;;5010438;28;19936;-77
2023/03/20 11:38:21;;;;;;;;;;;12.40;84.30;;;;;;5013601;28;20435;-77
2023/03/20 11:40:51;;;;;;;;;;;12.40;84.00;;;;;;5007106;28;19930;-78
2023/03/20 11:43:18;;;;;;;;;;;12.40;84.10;;;;;;5006002;28;20502;-78
2023/03/20 11:45:47;;;;;;;;;;;12.40;83.80;;;;;;5005836;28;19933;-78
2023/03/20 11:48:18;;;;;;;;;;;12.40;83.60;;;;;;5010775;28;19929;-80
2023/03/20 11:50:46;;;;;;;;;;;12.40;83.60;;;;;;5007602;28;20124;-79
2023/03/20 11:53:25;;;;;;;;;;;12.40;83.70;;;;;;5000866;28;20375;-77
2023/03/20 11:56:02;;;;;;;;;;;12.50;83.50;;;;;;5001883;28;20384;-79
2023/03/20 11:58:29;;;;;;;;;;;12.50;83.40;;;;;;5004135;28;19972;-77
2023/03/20 12:00:56;;;;;;;;;;;12.50;82.70;;;;;;5005224;28;19941;-78
2023/03/20 12:03:41;;;;;;;;;;;12.50;82.20;;;;;;5008682;28;19937;-78
2023/03/20 12:06:09;;;;;;;;;;;12.50;81.70;;;;;;5005728;28;20020;-80
2023/03/20 12:08:39;;;;;;;;;;;12.60;81.40;;;;;;5015482;28;19937;-80
2023/03/20 12:11:09;;;;;;;;;;;12.60;80.90;;;;;;5007971;28;19933;-78
2023/03/20 12:13:39;;;;;;;;;;;12.60;80.70;;;;;;5007194;28;19929;-78
2023/03/20 12:16:10;;;;;;;;;;;12.70;80.30;;;;;;4997779;28;19929;-77
2023/03/20 12:18:39;;;;;;;;;;;12.80;79.80;;;;;;5003164;28;19929;-72
2023/03/20 12:21:08;;;;;;;;;;;12.80;79.50;;;;;;5005782;28;19925;-72
2023/03/20 12:23:36;;;;;;;;;;;12.90;78.90;;;;;;5010532;28;20370;-71
2023/03/20 12:26:06;;;;;;;;;;;12.90;78.50;;;;;;5002523;28;19933;-73
2023/03/20 12:28:36;;;;;;;;;;;12.90;78.40;;;;;;5002367;28;19929;-74
2023/03/20 12:31:12;;;;;;;;;;;13.00;78.10;;;;;;5005615;28;19929;-75
2023/03/20 12:33:40;;;;;;;;;;;13.00;78.30;;;;;;5008473;28;19930;-73
2023/03/20 12:36:12;;;;;;;;;;;13.00;78.30;;;;;;5008484;28;19933;-73
2023/03/20 12:38:38;;;;;;;;;;;13.00;77.90;;;;;;5006852;28;19934;-77
2023/03/20 12:41:11;;;;;;;;;;;13.10;77.60;;;;;;5008898;28;20323;-74
2023/03/20 12:43:44;;;;;;;;;;;13.20;77.20;;;;;;5013516;28;19929;-72
2023/03/20 12:46:25;;;;;;;;;;;13.30;76.90;;;;;;5011105;28;19952;-73
2023/03/20 12:49:07;;;;;;;;;;;13.30;76.80;;;;;;5010965;28;20011;-73
2023/03/20 12:51:38;;;;;;;;;;;13.40;76.50;;;;;;5002712;28;19941;-73
2023/03/20 12:54:10;;;;;;;;;;;13.50;76.00;;;;;;4996778;28;19937;-79
2023/03/20 12:56:46;;;;;;;;;;;13.60;75.40;;;;;;5007492;28;19929;-77
2023/03/20 12:59:18;;;;;;;;;;;13.70;75.40;;;;;;5005853;28;20520;-80
2023/03/20 13:01:46;;;;;;;;;;;13.80;74.70;;;;;;5001838;28;19934;-79
2023/03/20 13:04:20;;;;;;;;;;;13.90;74.50;;;;;;5012811;28;20012;-79
2023/03/20 13:06:51;;;;;;;;;;;13.90;74.30;;;;;;5005636;28;19933;-78
2023/03/20 13:09:27;;;;;;;;;;;14.00;74.70;;;;;;5003709;28;19936;-78
2023/03/20 13:11:58;;;;;;;;;;;13.90;74.30;;;;;;5001668;28;20645;-78
2023/03/20 13:14:30;;;;;;;;;;;14.00;74.40;;;;;;5001326;28;19937;-76
2023/03/20 13:17:01;;;;;;;;;;;13.90;74.20;;;;;;5000327;28;19975;-80
2023/03/20 13:19:31;;;;;;;;;;;14.00;73.90;;;;;;5004240;28;19933;-77
2023/03/20 13:22:02;;;;;;;;;;;13.90;74.40;;;;;;5003796;28;19925;-78
2023/03/20 13:24:35;;;;;;;;;;;14.00;74.70;;;;;;5003375;28;19930;-79
2023/03/20 13:27:07;;;;;;;;;;;14.00;73.90;;;;;;5000320;28;20365;-77
2023/03/20 13:29:41;;;;;;;;;;;14.00;73.30;;;;;;5007608;28;20430;-79
2023/03/20 13:32:13;;;;;;;;;;;14.00;73.20;;;;;;5001166;28;19929;-78
2023/03/20 13:34:49;;;;;;;;;;;14.10;72.60;;;;;;5000762;28;20004;-80
2023/03/20 13:37:18;;;;;;;;;;;14.20;72.40;;;;;;5005566;28;20403;-78
2023/03/20 13:39:46;;;;;;;;;;;14.20;72.40;;;;;;5009505;28;19929;-79
2023/03/20 13:42:17;;;;;;;;;;;14.20;72.30;;;;;;5002915;28;19929;-78
2023/03/20 13:44:44;;;;;;;;;;;14.20;71.90;;;;;;5007887;28;19929;-80
2023/03/20 13:47:13;;;;;;;;;;;14.30;71.80;;;;;;5003613;28;19929;-77
2023/03/20 13:49:43;;;;;;;;;;;14.30;71.80;;;;;;5002156;28;20426;-77
2023/03/20 13:52:12;;;;;;;;;;;14.20;71.70;;;;;;5002721;28;19941;-79
2023/03/20 13:54:47;;;;;;;;;;;14.30;71.30;;;;;;5004447;28;19976;-78
2023/03/20 13:57:20;;;;;;;;;;;14.30;71.40;;;;;;4999160;28;19937;-78
2023/03/20 13:59:54;;;;;;;;;;;14.30;70.70;;;;;;5002193;28;19941;-79
2023/03/20 14:02:28;;;;;;;;;;;14.20;70.40;;;;;;4998791;28;19951;-78
2023/03/20 14:04:59;;;;;;;;;;;14.20;70.10;;;;;;5006791;28;19930;-77
2023/03/20 14:07:31;;;;;;;;;;;14.20;70.50;;;;;;5006624;28;19934;-79
2023/03/20 14:09:58;;;;;;;;;;;14.20;70.20;;;;;;5003073;28;19952;-77
2023/03/20 14:12:26;;;;;;;;;;;14.30;69.70;;;;;;5005285;28;20409;-79
2023/03/20 14:14:55;;;;;;;;;;;14.20;70.30;;;;;;5001557;28;20486;-78
2023/03/20 14:17:23;;;;;;;;;;;14.20;70.30;;;;;;5004442;28;19929;-78
2023/03/20 14:19:50;;;;;;;;;;;14.20;70.10;;;;;;5003281;28;19933;-79
2023/03/20 14:22:18;;;;;;;;;;;14.20;70.50;;;;;;5003249;28;19937;-77
2023/03/20 14:24:50;;;;;;;;;;;14.20;70.70;;;;;;5005679;28;19930;-78